sensor_id;sensor_type;location;lat;lon;timestamp;temperature;humidity
7360;DHT22;3720;48.274;7.796;2023-07-08T00:01:17;20.70;99.90
7360;DHT22;3720;48.274;7.796;2023-07-08T00:03:50;20.60;99.90
7360;DHT22;3720;48.274;7.796;2023-07-08T00:06:24;20.50;99.90
7360;DHT22;3720;48.274;7.796;2023-07-08T00:08:57;20.60;99.90
7360;DHT22;3720;48.274;7.796;2023-07-08T00:11:29;20.70;99.90
7360;DHT22;3720;48.274;7.796;2023-07-08T00:14:01;20.70;99.90
7360;DHT22;3720;48.274;7.796;2023-07-08T00:16:35;20.70;99.90
7360;DHT22;3720;48.274;7.796;2023-07-08T00:19:08;20.70;99.90
7360;DHT22;3720;48.274;7.796;2023-07-08T00:21:41;20.60;99.90
7360;DHT22;3720;48.274;7.796;2023-07-08T00:24:13;20.50;99.90
7360;DHT22;3720;48.274;7.796;2023-07-08T00:26:45;20.50;99.90
7360;DHT22;3720;48.274;7.796;2023-07-08T00:29:17;20.40;99.90
7360;DHT22;3720;48.274;7.796;2023-07-08T00:31:50;20.30;99.90
7360;DHT22;3720;48.274;7.796;2023-07-08T00:34:22;20.20;99.90
7360;DHT22;3720;48.274;7.796;2023-07-08T00:36:54;20.30;99.90
7360;DHT22;3720;48.274;7.796;2023-07-08T00:39:26;20.20;99.90
7360;DHT22;3720;48.274;7.796;2023-07-08T00:41:59;20.10;99.90
7360;DHT22;3720;48.274;7.796;2023-07-08T00:44:32;20.10;99.90
7360;DHT22;3720;48.274;7.796;2023-07-08T00:47:10;20.10;99.90
7360;DHT22;3720;48.274;7.796;2023-07-08T00:49:45;20.10;99.90
7360;DHT22;3720;48.274;7.796;2023-07-08T00:52:22;19.90;99.90
7360;DHT22;3720;48.274;7.796;2023-07-08T00:54:55;19.90;99.90
7360;DHT22;3720;48.274;7.796;2023-07-08T00:57:33;19.80;99.90
7360;DHT22;3720;48.274;7.796;2023-07-08T01:00:07;19.80;99.90
7360;DHT22;3720;48.274;7.796;2023-07-08T01:02:44;19.80;99.90
7360;DHT22;3720;48.274;7.796;2023-07-08T01:05:19;19.80;99.90
7360;DHT22;3720;48.274;7.796;2023-07-08T01:07:53;19.80;99.90
7360;DHT22;3720;48.274;7.796;2023-07-08T01:10:30;19.70;99.90
7360;DHT22;3720;48.274;7.796;2023-07-08T01:13:05;19.70;99.90
7360;DHT22;3720;48.274;7.796;2023-07-08T01:15:41;19.70;99.90
7360;DHT22;3720;48.274;7.796;2023-07-08T01:18:18;19.60;99.90
7360;DHT22;3720;48.274;7.796;2023-07-08T01:21:03;19.60;99.90
7360;DHT22;3720;48.274;7.796;2023-07-08T01:23:38;19.60;99.90
7360;DHT22;3720;48.274;7.796;2023-07-08T01:26:10;19.60;99.90
7360;DHT22;3720;48.274;7.796;2023-07-08T01:28:42;19.50;99.90
7360;DHT22;3720;48.274;7.796;2023-07-08T01:31:13;19.60;99.90
7360;DHT22;3720;48.274;7.796;2023-07-08T01:33:46;19.60;99.90
7360;DHT22;3720;48.274;7.796;2023-07-08T01:36:20;19.60;99.90
7360;DHT22;3720;48.274;7.796;2023-07-08T01:38:54;19.50;99.90
7360;DHT22;3720;48.274;7.796;2023-07-08T01:41:25;19.50;99.90
7360;DHT22;3720;48.274;7.796;2023-07-08T01:43:57;19.40;99.90
7360;DHT22;3720;48.274;7.796;2023-07-08T01:46:29;19.40;99.90
7360;DHT22;3720;48.274;7.796;2023-07-08T01:49:02;19.40;99.90
7360;DHT22;3720;48.274;7.796;2023-07-08T01:51:34;19.40;99.90
7360;DHT22;3720;48.274;7.796;2023-07-08T01:54:07;19.30;99.90
7360;DHT22;3720;48.274;7.796;2023-07-08T01:56:39;19.30;99.90
7360;DHT22;3720;48.274;7.796;2023-07-08T01:59:11;19.30;99.90
7360;DHT22;3720;48.274;7.796;2023-07-08T02:01:43;19.20;99.90
7360;DHT22;3720;48.274;7.796;2023-07-08T02:04:14;19.20;99.90
7360;DHT22;3720;48.274;7.796;2023-07-08T02:06:51;19.10;99.90
7360;DHT22;3720;48.274;7.796;2023-07-08T02:09:25;19.20;99.90
7360;DHT22;3720;48.274;7.796;2023-07-08T02:11:57;19.20;99.90
7360;DHT22;3720;48.274;7.796;2023-07-08T02:14:29;19.30;99.90
7360;DHT22;3720;48.274;7.796;2023-07-08T02:17:01;19.40;99.90
7360;DHT22;3720;48.274;7.796;2023-07-08T02:19:36;19.60;99.90
7360;DHT22;3720;48.274;7.796;2023-07-08T02:22:08;19.60;99.90
7360;DHT22;3720;48.274;7.796;2023-07-08T02:24:41;19.60;99.90
7360;DHT22;3720;48.274;7.796;2023-07-08T02:27:13;19.60;99.90
7360;DHT22;3720;48.274;7.796;2023-07-08T02:29:45;19.50;99.90
7360;DHT22;3720;48.274;7.796;2023-07-08T02:32:17;19.40;99.90
7360;DHT22;3720;48.274;7.796;2023-07-08T02:34:49;19.30;99.90
7360;DHT22;3720;48.274;7.796;2023-07-08T02:37:22;19.20;99.90
7360;DHT22;3720;48.274;7.796;2023-07-08T02:39:55;19.00;99.90
7360;DHT22;3720;48.274;7.796;2023-07-08T02:42:27;19.00;99.90
7360;DHT22;3720;48.274;7.796;2023-07-08T02:44:59;18.80;99.90
7360;DHT22;3720;48.274;7.796;2023-07-08T02:47:31;18.80;99.90
7360;DHT22;3720;48.274;7.796;2023-07-08T02:50:03;18.70;99.90
7360;DHT22;3720;48.274;7.796;2023-07-08T02:52:37;18.70;99.90
7360;DHT22;3720;48.274;7.796;2023-07-08T02:55:10;18.70;99.90
7360;DHT22;3720;48.274;7.796;2023-07-08T02:57:42;18.70;99.90
7360;DHT22;3720;48.274;7.796;2023-07-08T03:00:14;18.60;99.90
7360;DHT22;3720;48.274;7.796;2023-07-08T03:02:46;18.50;99.90
7360;DHT22;3720;48.274;7.796;2023-07-08T03:05:18;18.40;99.90
7360;DHT22;3720;48.274;7.796;2023-07-08T03:07:50;18.50;99.90
7360;DHT22;3720;48.274;7.796;2023-07-08T03:10:24;18.40;99.90
7360;DHT22;3720;48.274;7.796;2023-07-08T03:12:56;18.40;99.90
7360;DHT22;3720;48.274;7.796;2023-07-08T03:15:27;18.40;99.90
7360;DHT22;3720;48.274;7.796;2023-07-08T03:17:59;18.40;99.90
7360;DHT22;3720;48.274;7.796;2023-07-08T03:20:31;18.50;99.90
7360;DHT22;3720;48.274;7.796;2023-07-08T03:23:03;18.50;99.90
7360;DHT22;3720;48.274;7.796;2023-07-08T03:25:37;18.70;99.90
7360;DHT22;3720;48.274;7.796;2023-07-08T03:28:10;18.80;99.90
7360;DHT22;3720;48.274;7.796;2023-07-08T03:30:50;18.70;99.90
7360;DHT22;3720;48.274;7.796;2023-07-08T03:33:22;18.70;99.90
7360;DHT22;3720;48.274;7.796;2023-07-08T03:35:55;18.90;99.90
7360;DHT22;3720;48.274;7.796;2023-07-08T03:38:27;18.80;99.90
7360;DHT22;3720;48.274;7.796;2023-07-08T03:41:00;18.80;99.90
7360;DHT22;3720;48.274;7.796;2023-07-08T03:43:33;18.70;99.90
7360;DHT22;3720;48.274;7.796;2023-07-08T03:46:07;18.60;99.90
7360;DHT22;3720;48.274;7.796;2023-07-08T03:48:39;18.70;99.90
7360;DHT22;3720;48.274;7.796;2023-07-08T03:51:16;18.90;99.90
7360;DHT22;3720;48.274;7.796;2023-07-08T03:53:48;18.90;99.90
7360;DHT22;3720;48.274;7.796;2023-07-08T03:56:23;19.30;99.90
7360;DHT22;3720;48.274;7.796;2023-07-08T03:58:55;19.60;99.90
7360;DHT22;3720;48.274;7.796;2023-07-08T04:01:27;19.80;99.90
7360;DHT22;3720;48.274;7.796;2023-07-08T04:03:59;20.00;99.90
7360;DHT22;3720;48.274;7.796;2023-07-08T04:06:31;20.20;99.90
7360;DHT22;3720;48.274;7.796;2023-07-08T04:09:04;20.40;99.90
7360;DHT22;3720;48.274;7.796;2023-07-08T04:11:38;20.70;99.90
7360;DHT22;3720;48.274;7.796;2023-07-08T04:14:10;21.00;99.90
7360;DHT22;3720;48.274;7.796;2023-07-08T04:16:47;21.30;99.90
7360;DHT22;3720;48.274;7.796;2023-07-08T04:19:21;21.50;99.90
7360;DHT22;3720;48.274;7.796;2023-07-08T04:21:53;21.70;99.90
7360;DHT22;3720;48.274;7.796;2023-07-08T04:24:25;21.80;99.90
7360;DHT22;3720;48.274;7.796;2023-07-08T04:26:58;22.00;99.90
7360;DHT22;3720;48.274;7.796;2023-07-08T04:29:30;22.10;99.90
7360;DHT22;3720;48.274;7.796;2023-07-08T04:32:02;22.30;99.90
7360;DHT22;3720;48.274;7.796;2023-07-08T04:34:35;22.40;99.90
7360;DHT22;3720;48.274;7.796;2023-07-08T04:37:08;22.40;99.90
7360;DHT22;3720;48.274;7.796;2023-07-08T04:39:42;22.50;99.90
7360;DHT22;3720;48.274;7.796;2023-07-08T04:42:15;22.50;99.90
7360;DHT22;3720;48.274;7.796;2023-07-08T04:44:48;22.40;99.90
7360;DHT22;3720;48.274;7.796;2023-07-08T04:47:20;22.40;99.90
7360;DHT22;3720;48.274;7.796;2023-07-08T04:49:52;22.30;99.90
7360;DHT22;3720;48.274;7.796;2023-07-08T04:52:24;22.20;99.90
7360;DHT22;3720;48.274;7.796;2023-07-08T04:54:56;22.10;99.90
7360;DHT22;3720;48.274;7.796;2023-07-08T04:57:29;21.90;99.90
7360;DHT22;3720;48.274;7.796;2023-07-08T05:00:01;21.80;99.90
7360;DHT22;3720;48.274;7.796;2023-07-08T05:02:37;21.70;99.90
7360;DHT22;3720;48.274;7.796;2023-07-08T05:05:09;21.50;99.90
7360;DHT22;3720;48.274;7.796;2023-07-08T05:07:41;21.40;99.90
7360;DHT22;3720;48.274;7.796;2023-07-08T05:10:14;21.40;99.90
7360;DHT22;3720;48.274;7.796;2023-07-08T05:12:47;21.30;99.90
7360;DHT22;3720;48.274;7.796;2023-07-08T05:15:20;21.20;99.90
7360;DHT22;3720;48.274;7.796;2023-07-08T05:17:52;21.10;99.90
7360;DHT22;3720;48.274;7.796;2023-07-08T05:20:24;21.10;99.90
7360;DHT22;3720;48.274;7.796;2023-07-08T05:22:56;21.10;99.90
7360;DHT22;3720;48.274;7.796;2023-07-08T05:25:32;21.10;99.90
7360;DHT22;3720;48.274;7.796;2023-07-08T05:28:05;21.00;99.90
7360;DHT22;3720;48.274;7.796;2023-07-08T05:30:39;21.10;99.90
7360;DHT22;3720;48.274;7.796;2023-07-08T05:33:11;21.10;99.90
7360;DHT22;3720;48.274;7.796;2023-07-08T05:35:45;21.00;99.90
7360;DHT22;3720;48.274;7.796;2023-07-08T05:38:17;21.10;99.90
7360;DHT22;3720;48.274;7.796;2023-07-08T05:40:50;21.10;99.90
7360;DHT22;3720;48.274;7.796;2023-07-08T05:43:24;21.10;99.90
7360;DHT22;3720;48.274;7.796;2023-07-08T05:45:59;21.10;99.90
7360;DHT22;3720;48.274;7.796;2023-07-08T05:48:32;21.10;99.90
7360;DHT22;3720;48.274;7.796;2023-07-08T05:51:03;21.10;99.90
7360;DHT22;3720;48.274;7.796;2023-07-08T05:53:35;21.10;99.90
7360;DHT22;3720;48.274;7.796;2023-07-08T05:56:07;21.10;99.90
7360;DHT22;3720;48.274;7.796;2023-07-08T05:58:41;21.10;99.90
7360;DHT22;3720;48.274;7.796;2023-07-08T06:01:13;21.10;99.90
7360;DHT22;3720;48.274;7.796;2023-07-08T06:03:45;21.20;99.90
7360;DHT22;3720;48.274;7.796;2023-07-08T06:06:17;21.10;99.90
7360;DHT22;3720;48.274;7.796;2023-07-08T06:08:49;21.10;99.90
7360;DHT22;3720;48.274;7.796;2023-07-08T06:11:20;21.10;99.90
7360;DHT22;3720;48.274;7.796;2023-07-08T06:13:54;21.20;99.90
7360;DHT22;3720;48.274;7.796;2023-07-08T06:16:28;21.20;99.90
7360;DHT22;3720;48.274;7.796;2023-07-08T06:19:00;21.20;99.90
7360;DHT22;3720;48.274;7.796;2023-07-08T06:21:33;21.20;99.90
7360;DHT22;3720;48.274;7.796;2023-07-08T06:24:05;21.20;99.90
7360;DHT22;3720;48.274;7.796;2023-07-08T06:26:37;21.20;99.90
7360;DHT22;3720;48.274;7.796;2023-07-08T06:29:10;21.20;99.90
7360;DHT22;3720;48.274;7.796;2023-07-08T06:31:42;21.20;99.90
7360;DHT22;3720;48.274;7.796;2023-07-08T06:34:14;21.20;99.90
7360;DHT22;3720;48.274;7.796;2023-07-08T06:36:46;21.20;99.90
7360;DHT22;3720;48.274;7.796;2023-07-08T06:39:18;21.20;99.90
7360;DHT22;3720;48.274;7.796;2023-07-08T06:41:51;21.30;99.90
7360;DHT22;3720;48.274;7.796;2023-07-08T06:44:24;21.40;99.90
7360;DHT22;3720;48.274;7.796;2023-07-08T06:46:56;21.40;99.90
7360;DHT22;3720;48.274;7.796;2023-07-08T06:49:28;21.50;99.90
7360;DHT22;3720;48.274;7.796;2023-07-08T06:52:00;21.50;99.90
7360;DHT22;3720;48.274;7.796;2023-07-08T06:54:32;21.60;99.90
7360;DHT22;3720;48.274;7.796;2023-07-08T06:57:05;21.70;99.90
7360;DHT22;3720;48.274;7.796;2023-07-08T06:59:38;21.90;99.90
7360;DHT22;3720;48.274;7.796;2023-07-08T07:02:10;22.00;99.90
7360;DHT22;3720;48.274;7.796;2023-07-08T07:04:43;22.10;99.90
7360;DHT22;3720;48.274;7.796;2023-07-08T07:07:15;22.20;99.90
7360;DHT22;3720;48.274;7.796;2023-07-08T07:09:47;22.30;99.90
7360;DHT22;3720;48.274;7.796;2023-07-08T07:12:19;22.30;99.90
7360;DHT22;3720;48.274;7.796;2023-07-08T07:14:53;22.30;99.90
7360;DHT22;3720;48.274;7.796;2023-07-08T07:17:25;22.40;99.90
7360;DHT22;3720;48.274;7.796;2023-07-08T07:19:57;22.60;99.90
7360;DHT22;3720;48.274;7.796;2023-07-08T07:22:29;22.70;99.90
7360;DHT22;3720;48.274;7.796;2023-07-08T07:25:01;22.90;99.90
7360;DHT22;3720;48.274;7.796;2023-07-08T07:27:33;23.00;99.90
7360;DHT22;3720;48.274;7.796;2023-07-08T07:30:09;22.90;99.90
7360;DHT22;3720;48.274;7.796;2023-07-08T07:32:45;22.90;99.90
7360;DHT22;3720;48.274;7.796;2023-07-08T07:35:17;22.90;99.90
7360;DHT22;3720;48.274;7.796;2023-07-08T07:37:49;22.80;99.90
7360;DHT22;3720;48.274;7.796;2023-07-08T07:40:20;22.80;99.90
7360;DHT22;3720;48.274;7.796;2023-07-08T07:42:53;22.80;99.90
7360;DHT22;3720;48.274;7.796;2023-07-08T07:45:26;22.80;99.90
7360;DHT22;3720;48.274;7.796;2023-07-08T07:47:58;22.80;99.90
7360;DHT22;3720;48.274;7.796;2023-07-08T07:50:30;22.90;99.90
7360;DHT22;3720;48.274;7.796;2023-07-08T07:53:03;22.90;99.90
7360;DHT22;3720;48.274;7.796;2023-07-08T07:55:35;23.00;99.90
7360;DHT22;3720;48.274;7.796;2023-07-08T07:58:07;23.20;99.90
7360;DHT22;3720;48.274;7.796;2023-07-08T08:00:43;23.40;99.90
7360;DHT22;3720;48.274;7.796;2023-07-08T08:03:15;23.50;99.90
7360;DHT22;3720;48.274;7.796;2023-07-08T08:05:48;23.50;99.90
7360;DHT22;3720;48.274;7.796;2023-07-08T08:08:20;23.60;99.90
7360;DHT22;3720;48.274;7.796;2023-07-08T08:10:53;23.70;99.90
7360;DHT22;3720;48.274;7.796;2023-07-08T08:13:24;23.80;99.90
7360;DHT22;3720;48.274;7.796;2023-07-08T08:15:59;23.70;99.90
7360;DHT22;3720;48.274;7.796;2023-07-08T08:18:31;23.90;99.90
7360;DHT22;3720;48.274;7.796;2023-07-08T08:21:03;23.90;99.90
7360;DHT22;3720;48.274;7.796;2023-07-08T08:23:35;24.10;99.90
7360;DHT22;3720;48.274;7.796;2023-07-08T08:26:07;24.20;99.90
7360;DHT22;3720;48.274;7.796;2023-07-08T08:28:39;24.30;99.90
7360;DHT22;3720;48.274;7.796;2023-07-08T08:31:13;24.40;99.90
7360;DHT22;3720;48.274;7.796;2023-07-08T08:33:46;24.50;99.90
7360;DHT22;3720;48.274;7.796;2023-07-08T08:36:17;24.60;99.90
7360;DHT22;3720;48.274;7.796;2023-07-08T08:38:51;24.60;99.90
7360;DHT22;3720;48.274;7.796;2023-07-08T08:41:29;24.70;99.90
7360;DHT22;3720;48.274;7.796;2023-07-08T08:44:03;24.90;99.90
7360;DHT22;3720;48.274;7.796;2023-07-08T08:46:44;25.00;99.90
7360;DHT22;3720;48.274;7.796;2023-07-08T08:49:23;25.10;99.90
7360;DHT22;3720;48.274;7.796;2023-07-08T08:51:58;25.20;99.90
7360;DHT22;3720;48.274;7.796;2023-07-08T08:54:30;25.30;99.90
7360;DHT22;3720;48.274;7.796;2023-07-08T08:57:19;25.50;99.90
7360;DHT22;3720;48.274;7.796;2023-07-08T08:59:54;25.60;99.90
7360;DHT22;3720;48.274;7.796;2023-07-08T09:02:33;25.70;99.90
7360;DHT22;3720;48.274;7.796;2023-07-08T09:05:08;25.80;99.90
7360;DHT22;3720;48.274;7.796;2023-07-08T09:07:44;26.10;99.90
7360;DHT22;3720;48.274;7.796;2023-07-08T09:10:26;26.20;99.90
7360;DHT22;3720;48.274;7.796;2023-07-08T09:13:03;26.40;99.90
7360;DHT22;3720;48.274;7.796;2023-07-08T09:15:36;26.60;99.90
7360;DHT22;3720;48.274;7.796;2023-07-08T09:18:17;26.70;99.90
7360;DHT22;3720;48.274;7.796;2023-07-08T09:20:52;26.90;99.90
7360;DHT22;3720;48.274;7.796;2023-07-08T09:23:27;27.00;99.90
7360;DHT22;3720;48.274;7.796;2023-07-08T09:26:06;26.90;99.90
7360;DHT22;3720;48.274;7.796;2023-07-08T09:28:41;26.80;99.90
7360;DHT22;3720;48.274;7.796;2023-07-08T09:31:22;26.70;99.90
7360;DHT22;3720;48.274;7.796;2023-07-08T09:34:06;26.70;99.90
7360;DHT22;3720;48.274;7.796;2023-07-08T09:36:40;26.60;99.90
7360;DHT22;3720;48.274;7.796;2023-07-08T09:39:14;26.60;99.90
7360;DHT22;3720;48.274;7.796;2023-07-08T09:41:48;26.60;99.90
7360;DHT22;3720;48.274;7.796;2023-07-08T09:44:23;26.50;99.90
7360;DHT22;3720;48.274;7.796;2023-07-08T09:46:57;26.50;99.90
7360;DHT22;3720;48.274;7.796;2023-07-08T09:49:32;26.50;99.90
7360;DHT22;3720;48.274;7.796;2023-07-08T09:52:05;26.60;99.90
7360;DHT22;3720;48.274;7.796;2023-07-08T09:54:37;26.70;99.90
7360;DHT22;3720;48.274;7.796;2023-07-08T09:57:12;26.60;99.90
7360;DHT22;3720;48.274;7.796;2023-07-08T09:59:54;26.60;99.90
7360;DHT22;3720;48.274;7.796;2023-07-08T10:02:31;26.70;99.90
7360;DHT22;3720;48.274;7.796;2023-07-08T10:05:13;26.60;99.90
7360;DHT22;3720;48.274;7.796;2023-07-08T10:07:47;26.80;99.90
7360;DHT22;3720;48.274;7.796;2023-07-08T10:10:26;27.30;99.90
7360;DHT22;3720;48.274;7.796;2023-07-08T10:13:01;27.60;99.90
7360;DHT22;3720;48.274;7.796;2023-07-08T10:15:37;27.80;99.90
7360;DHT22;3720;48.274;7.796;2023-07-08T10:18:13;27.90;99.90
7360;DHT22;3720;48.274;7.796;2023-07-08T10:20:56;28.10;99.90
7360;DHT22;3720;48.274;7.796;2023-07-08T10:23:37;28.10;99.90
7360;DHT22;3720;48.274;7.796;2023-07-08T10:26:18;28.10;99.90
7360;DHT22;3720;48.274;7.796;2023-07-08T10:29:03;28.20;99.90
7360;DHT22;3720;48.274;7.796;2023-07-08T10:31:52;28.40;99.90
7360;DHT22;3720;48.274;7.796;2023-07-08T10:34:36;28.50;99.90
7360;DHT22;3720;48.274;7.796;2023-07-08T10:37:29;28.50;99.90
7360;DHT22;3720;48.274;7.796;2023-07-08T10:40:19;28.40;99.90
7360;DHT22;3720;48.274;7.796;2023-07-08T10:43:06;28.50;99.90
7360;DHT22;3720;48.274;7.796;2023-07-08T10:45:49;28.60;99.90
7360;DHT22;3720;48.274;7.796;2023-07-08T10:48:42;28.70;99.90
7360;DHT22;3720;48.274;7.796;2023-07-08T10:51:21;28.80;99.90
7360;DHT22;3720;48.274;7.796;2023-07-08T10:54:14;29.00;99.90
7360;DHT22;3720;48.274;7.796;2023-07-08T10:56:54;29.20;99.90
7360;DHT22;3720;48.274;7.796;2023-07-08T10:59:39;29.30;99.90
7360;DHT22;3720;48.274;7.796;2023-07-08T11:02:52;29.40;99.90
7360;DHT22;3720;48.274;7.796;2023-07-08T11:05:32;29.50;99.90
7360;DHT22;3720;48.274;7.796;2023-07-08T11:08:14;29.60;99.90
7360;DHT22;3720;48.274;7.796;2023-07-08T11:10:52;29.90;99.90
7360;DHT22;3720;48.274;7.796;2023-07-08T11:13:27;30.00;99.90
7360;DHT22;3720;48.274;7.796;2023-07-08T11:16:04;30.10;99.90
7360;DHT22;3720;48.274;7.796;2023-07-08T11:18:41;30.20;99.90
7360;DHT22;3720;48.274;7.796;2023-07-08T11:21:19;30.40;99.90
7360;DHT22;3720;48.274;7.796;2023-07-08T11:23:59;30.60;99.90
7360;DHT22;3720;48.274;7.796;2023-07-08T11:26:38;30.70;99.90
7360;DHT22;3720;48.274;7.796;2023-07-08T11:29:17;30.90;99.90
7360;DHT22;3720;48.274;7.796;2023-07-08T11:31:52;31.10;99.90
7360;DHT22;3720;48.274;7.796;2023-07-08T11:34:24;31.00;99.90
7360;DHT22;3720;48.274;7.796;2023-07-08T11:36:59;30.90;99.90
7360;DHT22;3720;48.274;7.796;2023-07-08T11:39:38;31.00;99.90
7360;DHT22;3720;48.274;7.796;2023-07-08T11:42:23;31.10;99.90
7360;DHT22;3720;48.274;7.796;2023-07-08T11:44:56;31.00;99.90
7360;DHT22;3720;48.274;7.796;2023-07-08T11:47:35;31.10;99.90
7360;DHT22;3720;48.274;7.796;2023-07-08T11:50:14;31.30;99.90
7360;DHT22;3720;48.274;7.796;2023-07-08T11:52:52;31.60;99.90
7360;DHT22;3720;48.274;7.796;2023-07-08T11:55:35;31.80;99.90
7360;DHT22;3720;48.274;7.796;2023-07-08T11:58:19;32.00;99.90
7360;DHT22;3720;48.274;7.796;2023-07-08T12:00:57;32.00;99.90
7360;DHT22;3720;48.274;7.796;2023-07-08T12:03:35;32.10;99.90
7360;DHT22;3720;48.274;7.796;2023-07-08T12:09:15;32.50;99.90
7360;DHT22;3720;48.274;7.796;2023-07-08T12:11:47;32.60;99.10
7360;DHT22;3720;48.274;7.796;2023-07-08T12:14:24;32.80;99.90
7360;DHT22;3720;48.274;7.796;2023-07-08T12:16:58;33.00;99.90
7360;DHT22;3720;48.274;7.796;2023-07-08T12:19:30;33.10;97.20
7360;DHT22;3720;48.274;7.796;2023-07-08T12:22:04;33.00;98.10
7360;DHT22;3720;48.274;7.796;2023-07-08T12:24:36;33.00;98.00
7360;DHT22;3720;48.274;7.796;2023-07-08T12:27:10;33.00;95.70
7360;DHT22;3720;48.274;7.796;2023-07-08T12:29:43;33.30;98.80
7360;DHT22;3720;48.274;7.796;2023-07-08T12:32:15;33.50;97.40
7360;DHT22;3720;48.274;7.796;2023-07-08T12:34:50;33.80;96.10
7360;DHT22;3720;48.274;7.796;2023-07-08T12:37:22;33.90;98.00
7360;DHT22;3720;48.274;7.796;2023-07-08T12:39:55;33.90;93.80
7360;DHT22;3720;48.274;7.796;2023-07-08T12:42:30;34.00;93.60
7360;DHT22;3720;48.274;7.796;2023-07-08T12:45:13;34.00;91.90
7360;DHT22;3720;48.274;7.796;2023-07-08T12:47:46;34.00;92.40
7360;DHT22;3720;48.274;7.796;2023-07-08T12:50:18;34.20;91.50
7360;DHT22;3720;48.274;7.796;2023-07-08T12:52:50;34.40;87.60
7360;DHT22;3720;48.274;7.796;2023-07-08T12:55:23;34.70;90.90
7360;DHT22;3720;48.274;7.796;2023-07-08T12:57:56;34.90;89.60
7360;DHT22;3720;48.274;7.796;2023-07-08T13:00:31;34.80;84.80
7360;DHT22;3720;48.274;7.796;2023-07-08T13:03:10;34.70;85.10
7360;DHT22;3720;48.274;7.796;2023-07-08T13:05:44;34.70;87.00
7360;DHT22;3720;48.274;7.796;2023-07-08T13:08:20;34.90;88.00
7360;DHT22;3720;48.274;7.796;2023-07-08T13:10:54;35.00;83.20
7360;DHT22;3720;48.274;7.796;2023-07-08T13:13:31;34.90;81.60
7360;DHT22;3720;48.274;7.796;2023-07-08T13:16:08;35.10;81.70
7360;DHT22;3720;48.274;7.796;2023-07-08T13:18:42;35.20;84.50
7360;DHT22;3720;48.274;7.796;2023-07-08T13:21:15;35.10;81.60
7360;DHT22;3720;48.274;7.796;2023-07-08T13:23:47;35.00;82.30
7360;DHT22;3720;48.274;7.796;2023-07-08T13:26:22;35.00;82.60
7360;DHT22;3720;48.274;7.796;2023-07-08T13:29:00;35.20;79.70
7360;DHT22;3720;48.274;7.796;2023-07-08T13:31:34;35.10;77.50
7360;DHT22;3720;48.274;7.796;2023-07-08T13:34:08;35.20;76.40
7360;DHT22;3720;48.274;7.796;2023-07-08T13:36:43;35.40;77.80
7360;DHT22;3720;48.274;7.796;2023-07-08T13:39:21;35.30;76.40
7360;DHT22;3720;48.274;7.796;2023-07-08T13:41:54;35.30;77.20
7360;DHT22;3720;48.274;7.796;2023-07-08T13:44:26;35.50;71.80
7360;DHT22;3720;48.274;7.796;2023-07-08T13:47:01;35.50;71.30
7360;DHT22;3720;48.274;7.796;2023-07-08T13:49:39;35.50;75.50
7360;DHT22;3720;48.274;7.796;2023-07-08T13:52:18;35.50;69.50
7360;DHT22;3720;48.274;7.796;2023-07-08T13:54:54;35.70;74.00
7360;DHT22;3720;48.274;7.796;2023-07-08T13:57:34;35.90;69.80
7360;DHT22;3720;48.274;7.796;2023-07-08T14:00:08;35.70;71.40
7360;DHT22;3720;48.274;7.796;2023-07-08T14:02:44;35.90;72.60
7360;DHT22;3720;48.274;7.796;2023-07-08T14:05:16;36.00;72.10
7360;DHT22;3720;48.274;7.796;2023-07-08T14:07:50;35.90;74.60
7360;DHT22;3720;48.274;7.796;2023-07-08T14:10:22;36.00;71.60
7360;DHT22;3720;48.274;7.796;2023-07-08T14:12:54;36.10;66.00
7360;DHT22;3720;48.274;7.796;2023-07-08T14:15:26;36.20;69.90
7360;DHT22;3720;48.274;7.796;2023-07-08T14:18:00;36.40;69.20
7360;DHT22;3720;48.274;7.796;2023-07-08T14:20:33;36.60;69.70
7360;DHT22;3720;48.274;7.796;2023-07-08T14:23:05;36.60;72.20
7360;DHT22;3720;48.274;7.796;2023-07-08T14:25:36;36.60;68.30
7360;DHT22;3720;48.274;7.796;2023-07-08T14:28:09;36.70;64.00
7360;DHT22;3720;48.274;7.796;2023-07-08T14:30:43;36.60;65.60
7360;DHT22;3720;48.274;7.796;2023-07-08T14:33:17;36.30;64.70
7360;DHT22;3720;48.274;7.796;2023-07-08T14:35:49;36.40;70.50
7360;DHT22;3720;48.274;7.796;2023-07-08T14:38:21;36.40;65.50
7360;DHT22;3720;48.274;7.796;2023-07-08T14:40:53;36.40;67.10
7360;DHT22;3720;48.274;7.796;2023-07-08T14:43:27;36.50;66.10
7360;DHT22;3720;48.274;7.796;2023-07-08T14:46:01;36.50;60.70
7360;DHT22;3720;48.274;7.796;2023-07-08T14:48:36;36.40;65.00
7360;DHT22;3720;48.274;7.796;2023-07-08T14:51:07;36.40;65.10
7360;DHT22;3720;48.274;7.796;2023-07-08T14:53:39;36.20;61.10
7360;DHT22;3720;48.274;7.796;2023-07-08T14:56:14;36.10;64.20
7360;DHT22;3720;48.274;7.796;2023-07-08T14:58:47;36.00;59.70
7360;DHT22;3720;48.274;7.796;2023-07-08T15:01:20;36.00;59.30
7360;DHT22;3720;48.274;7.796;2023-07-08T15:03:56;36.10;61.50
7360;DHT22;3720;48.274;7.796;2023-07-08T15:06:28;36.40;61.60
7360;DHT22;3720;48.274;7.796;2023-07-08T15:09:00;36.60;61.10
7360;DHT22;3720;48.274;7.796;2023-07-08T15:11:32;36.70;58.10
7360;DHT22;3720;48.274;7.796;2023-07-08T15:14:06;36.60;57.20
7360;DHT22;3720;48.274;7.796;2023-07-08T15:16:41;36.40;57.70
7360;DHT22;3720;48.274;7.796;2023-07-08T15:19:18;36.50;59.20
7360;DHT22;3720;48.274;7.796;2023-07-08T15:21:50;36.50;58.00
7360;DHT22;3720;48.274;7.796;2023-07-08T15:24:22;36.50;59.00
7360;DHT22;3720;48.274;7.796;2023-07-08T15:26:55;36.40;57.00
7360;DHT22;3720;48.274;7.796;2023-07-08T15:29:28;36.30;56.90
7360;DHT22;3720;48.274;7.796;2023-07-08T15:32:00;36.40;59.90
7360;DHT22;3720;48.274;7.796;2023-07-08T15:34:34;36.50;60.00
7360;DHT22;3720;48.274;7.796;2023-07-08T15:37:06;36.60;57.70
7360;DHT22;3720;48.274;7.796;2023-07-08T15:39:38;36.60;58.50
7360;DHT22;3720;48.274;7.796;2023-07-08T15:42:11;36.40;57.80
7360;DHT22;3720;48.274;7.796;2023-07-08T15:44:43;36.20;59.60
7360;DHT22;3720;48.274;7.796;2023-07-08T15:47:21;35.90;56.30
7360;DHT22;3720;48.274;7.796;2023-07-08T15:49:54;35.90;58.50
7360;DHT22;3720;48.274;7.796;2023-07-08T15:52:26;36.00;59.20
7360;DHT22;3720;48.274;7.796;2023-07-08T15:54:58;36.10;58.70
7360;DHT22;3720;48.274;7.796;2023-07-08T15:57:30;36.20;58.10
7360;DHT22;3720;48.274;7.796;2023-07-08T16:00:02;36.00;58.00
7360;DHT22;3720;48.274;7.796;2023-07-08T16:02:35;35.90;60.00
7360;DHT22;3720;48.274;7.796;2023-07-08T16:05:09;35.90;58.70
7360;DHT22;3720;48.274;7.796;2023-07-08T16:07:41;35.80;59.00
7360;DHT22;3720;48.274;7.796;2023-07-08T16:10:14;35.80;60.20
7360;DHT22;3720;48.274;7.796;2023-07-08T16:12:47;35.90;58.50
7360;DHT22;3720;48.274;7.796;2023-07-08T16:15:25;36.10;58.20
7360;DHT22;3720;48.274;7.796;2023-07-08T16:17:59;36.20;58.00
7360;DHT22;3720;48.274;7.796;2023-07-08T16:20:33;36.30;57.40
7360;DHT22;3720;48.274;7.796;2023-07-08T16:23:05;36.10;57.90
7360;DHT22;3720;48.274;7.796;2023-07-08T16:25:39;35.90;58.10
7360;DHT22;3720;48.274;7.796;2023-07-08T16:28:26;35.80;56.60
7360;DHT22;3720;48.274;7.796;2023-07-08T16:30:59;35.60;59.00
7360;DHT22;3720;48.274;7.796;2023-07-08T16:33:31;35.50;59.40
7360;DHT22;3720;48.274;7.796;2023-07-08T16:36:11;35.50;60.10
7360;DHT22;3720;48.274;7.796;2023-07-08T16:38:44;35.60;57.80
7360;DHT22;3720;48.274;7.796;2023-07-08T16:41:17;35.60;59.60
7360;DHT22;3720;48.274;7.796;2023-07-08T16:43:49;35.50;58.30
7360;DHT22;3720;48.274;7.796;2023-07-08T16:46:23;35.40;58.10
7360;DHT22;3720;48.274;7.796;2023-07-08T16:48:55;35.40;59.50
7360;DHT22;3720;48.274;7.796;2023-07-08T16:51:29;35.40;59.90